sensor_id;sensor_type;location;lat;lon;timestamp;P1;durP1;ratioP1;P2;durP2;ratioP2
2724;SDS011;1370;52.596;13.112;2023-01-29T00:02:25;14.70;;;8.93;;
2724;SDS011;1370;52.596;13.112;2023-01-29T00:04:50;13.27;;;9.17;;
2724;SDS011;1370;52.596;13.112;2023-01-29T00:07:16;9.77;;;8.77;;
2724;SDS011;1370;52.596;13.112;2023-01-29T00:09:42;12.47;;;10.17;;
2724;SDS011;1370;52.596;13.112;2023-01-29T00:12:07;11.43;;;8.67;;
2724;SDS011;1370;52.596;13.112;2023-01-29T00:14:33;11.50;;;10.17;;
2724;SDS011;1370;52.596;13.112;2023-01-29T00:16:58;10.37;;;9.27;;
2724;SDS011;1370;52.596;13.112;2023-01-29T00:19:24;13.80;;;9.63;;
2724;SDS011;1370;52.596;13.112;2023-01-29T00:21:49;14.47;;;10.10;;
2724;SDS011;1370;52.596;13.112;2023-01-29T00:24:14;15.07;;;10.53;;
2724;SDS011;1370;52.596;13.112;2023-01-29T00:26:40;13.13;;;11.43;;
2724;SDS011;1370;52.596;13.112;2023-01-29T00:29:06;18.63;;;10.57;;
2724;SDS011;1370;52.596;13.112;2023-01-29T00:31:31;11.50;;;10.07;;
2724;SDS011;1370;52.596;13.112;2023-01-29T00:33:56;15.30;;;11.13;;
2724;SDS011;1370;52.596;13.112;2023-01-29T00:36:22;12.50;;;10.30;;
2724;SDS011;1370;52.596;13.112;2023-01-29T00:38:53;15.60;;;11.10;;
2724;SDS011;1370;52.596;13.112;2023-01-29T00:41:27;18.40;;;11.50;;
2724;SDS011;1370;52.596;13.112;2023-01-29T00:44:12;16.33;;;11.43;;
2724;SDS011;1370;52.596;13.112;2023-01-29T00:46:56;16.70;;;9.60;;
2724;SDS011;1370;52.596;13.112;2023-01-29T00:49:21;17.77;;;12.50;;
2724;SDS011;1370;52.596;13.112;2023-01-29T00:51:46;16.13;;;11.83;;
2724;SDS011;1370;52.596;13.112;2023-01-29T00:54:30;22.87;;;12.90;;
2724;SDS011;1370;52.596;13.112;2023-01-29T00:56:56;17.50;;;12.10;;
2724;SDS011;1370;52.596;13.112;2023-01-29T00:59:21;17.90;;;12.50;;
2724;SDS011;1370;52.596;13.112;2023-01-29T01:01:46;22.87;;;12.47;;
2724;SDS011;1370;52.596;13.112;2023-01-29T01:04:30;19.90;;;13.17;;
2724;SDS011;1370;52.596;13.112;2023-01-29T01:06:55;18.47;;;13.87;;
2724;SDS011;1370;52.596;13.112;2023-01-29T01:09:21;18.47;;;14.10;;
2724;SDS011;1370;52.596;13.112;2023-01-29T01:12:05;18.17;;;11.90;;
2724;SDS011;1370;52.596;13.112;2023-01-29T01:14:30;17.07;;;11.70;;
2724;SDS011;1370;52.596;13.112;2023-01-29T01:16:58;20.80;;;13.57;;
2724;SDS011;1370;52.596;13.112;2023-01-29T01:19:24;27.17;;;14.90;;
2724;SDS011;1370;52.596;13.112;2023-01-29T01:21:49;25.23;;;14.43;;
2724;SDS011;1370;52.596;13.112;2023-01-29T01:24:14;22.57;;;14.17;;
2724;SDS011;1370;52.596;13.112;2023-01-29T01:26:40;23.37;;;14.23;;
2724;SDS011;1370;52.596;13.112;2023-01-29T01:29:05;17.10;;;12.63;;
2724;SDS011;1370;52.596;13.112;2023-01-29T01:31:30;21.43;;;15.20;;
2724;SDS011;1370;52.596;13.112;2023-01-29T01:33:56;19.40;;;13.40;;
2724;SDS011;1370;52.596;13.112;2023-01-29T01:36:21;27.27;;;15.10;;
2724;SDS011;1370;52.596;13.112;2023-01-29T01:38:46;23.93;;;14.27;;
2724;SDS011;1370;52.596;13.112;2023-01-29T01:41:16;24.67;;;15.53;;
2724;SDS011;1370;52.596;13.112;2023-01-29T01:43:54;24.03;;;14.80;;
2724;SDS011;1370;52.596;13.112;2023-01-29T01:46:21;21.10;;;13.80;;
2724;SDS011;1370;52.596;13.112;2023-01-29T01:48:49;17.07;;;12.07;;
2724;SDS011;1370;52.596;13.112;2023-01-29T01:51:19;22.07;;;14.20;;
2724;SDS011;1370;52.596;13.112;2023-01-29T01:53:56;22.40;;;14.50;;
2724;SDS011;1370;52.596;13.112;2023-01-29T01:56:27;22.97;;;14.63;;
2724;SDS011;1370;52.596;13.112;2023-01-29T01:59:02;23.20;;;16.10;;
2724;SDS011;1370;52.596;13.112;2023-01-29T02:01:28;20.30;;;14.20;;
2724;SDS011;1370;52.596;13.112;2023-01-29T02:03:56;23.73;;;15.40;;
2724;SDS011;1370;52.596;13.112;2023-01-29T02:06:43;22.43;;;14.27;;
2724;SDS011;1370;52.596;13.112;2023-01-29T02:09:36;22.93;;;14.90;;
2724;SDS011;1370;52.596;13.112;2023-01-29T02:12:10;25.97;;;14.20;;
2724;SDS011;1370;52.596;13.112;2023-01-29T02:14:37;28.20;;;15.20;;
2724;SDS011;1370;52.596;13.112;2023-01-29T02:17:04;22.03;;;14.43;;
2724;SDS011;1370;52.596;13.112;2023-01-29T02:19:42;22.63;;;14.50;;
2724;SDS011;1370;52.596;13.112;2023-01-29T02:22:23;28.40;;;16.90;;
2724;SDS011;1370;52.596;13.112;2023-01-29T02:27:20;18.47;;;14.03;;
2724;SDS011;1370;52.596;13.112;2023-01-29T02:29:53;26.73;;;15.93;;
2724;SDS011;1370;52.596;13.112;2023-01-29T02:32:39;23.90;;;15.87;;
2724;SDS011;1370;52.596;13.112;2023-01-29T02:35:19;20.20;;;14.67;;
2724;SDS011;1370;52.596;13.112;2023-01-29T02:37:56;23.20;;;15.40;;
2724;SDS011;1370;52.596;13.112;2023-01-29T02:43:07;34.87;;;17.00;;
2724;SDS011;1370;52.596;13.112;2023-01-29T02:45:49;29.67;;;17.90;;
2724;SDS011;1370;52.596;13.112;2023-01-29T02:48:19;24.23;;;15.47;;
2724;SDS011;1370;52.596;13.112;2023-01-29T02:50:55;23.00;;;15.27;;
2724;SDS011;1370;52.596;13.112;2023-01-29T02:53:45;25.70;;;16.50;;
2724;SDS011;1370;52.596;13.112;2023-01-29T02:56:17;23.77;;;15.70;;
2724;SDS011;1370;52.596;13.112;2023-01-29T02:58:59;24.57;;;16.00;;
2724;SDS011;1370;52.596;13.112;2023-01-29T03:01:29;20.43;;;14.70;;
2724;SDS011;1370;52.596;13.112;2023-01-29T03:04:00;24.00;;;14.40;;
2724;SDS011;1370;52.596;13.112;2023-01-29T03:06:31;24.90;;;16.23;;
2724;SDS011;1370;52.596;13.112;2023-01-29T03:09:00;25.07;;;15.10;;
2724;SDS011;1370;52.596;13.112;2023-01-29T03:11:33;21.77;;;14.23;;
2724;SDS011;1370;52.596;13.112;2023-01-29T03:14:07;29.73;;;15.17;;
2724;SDS011;1370;52.596;13.112;2023-01-29T03:16:38;18.83;;;14.30;;
2724;SDS011;1370;52.596;13.112;2023-01-29T03:19:08;25.83;;;15.23;;
2724;SDS011;1370;52.596;13.112;2023-01-29T03:21:36;21.67;;;15.17;;
2724;SDS011;1370;52.596;13.112;2023-01-29T03:24:25;24.53;;;16.20;;
2724;SDS011;1370;52.596;13.112;2023-01-29T03:27:26;24.63;;;15.90;;
2724;SDS011;1370;52.596;13.112;2023-01-29T03:30:12;29.10;;;16.73;;
2724;SDS011;1370;52.596;13.112;2023-01-29T03:32:58;24.30;;;15.90;;
2724;SDS011;1370;52.596;13.112;2023-01-29T03:35:27;25.87;;;15.80;;
2724;SDS011;1370;52.596;13.112;2023-01-29T03:37:59;23.47;;;14.97;;
2724;SDS011;1370;52.596;13.112;2023-01-29T03:40:25;26.97;;;15.63;;
2724;SDS011;1370;52.596;13.112;2023-01-29T03:43:04;22.97;;;16.20;;
2724;SDS011;1370;52.596;13.112;2023-01-29T03:45:37;23.27;;;14.77;;
2724;SDS011;1370;52.596;13.112;2023-01-29T03:48:20;20.90;;;14.93;;
2724;SDS011;1370;52.596;13.112;2023-01-29T03:50:52;29.30;;;16.13;;
2724;SDS011;1370;52.596;13.112;2023-01-29T03:53:24;25.17;;;15.83;;
2724;SDS011;1370;52.596;13.112;2023-01-29T03:56:04;33.60;;;16.40;;
2724;SDS011;1370;52.596;13.112;2023-01-29T03:58:38;25.77;;;17.10;;
2724;SDS011;1370;52.596;13.112;2023-01-29T04:01:13;23.40;;;15.30;;
2724;SDS011;1370;52.596;13.112;2023-01-29T04:06:17;29.13;;;17.60;;
2724;SDS011;1370;52.596;13.112;2023-01-29T04:08:47;24.53;;;16.23;;
2724;SDS011;1370;52.596;13.112;2023-01-29T04:11:17;28.80;;;18.07;;
2724;SDS011;1370;52.596;13.112;2023-01-29T04:13:44;30.30;;;17.20;;
2724;SDS011;1370;52.596;13.112;2023-01-29T04:16:11;32.67;;;18.80;;
2724;SDS011;1370;52.596;13.112;2023-01-29T04:18:43;28.77;;;18.60;;
2724;SDS011;1370;52.596;13.112;2023-01-29T04:21:09;27.63;;;17.83;;
2724;SDS011;1370;52.596;13.112;2023-01-29T04:23:34;30.53;;;16.93;;
2724;SDS011;1370;52.596;13.112;2023-01-29T04:26:08;35.43;;;17.70;;
2724;SDS011;1370;52.596;13.112;2023-01-29T04:29:24;26.60;;;18.33;;
2724;SDS011;1370;52.596;13.112;2023-01-29T04:32:06;29.57;;;16.70;;
2724;SDS011;1370;52.596;13.112;2023-01-29T04:37:34;33.97;;;18.67;;
2724;SDS011;1370;52.596;13.112;2023-01-29T04:40:35;35.83;;;19.03;;
2724;SDS011;1370;52.596;13.112;2023-01-29T04:43:24;27.60;;;18.10;;
2724;SDS011;1370;52.596;13.112;2023-01-29T04:46:20;29.80;;;18.40;;
2724;SDS011;1370;52.596;13.112;2023-01-29T04:49:36;28.20;;;16.33;;
2724;SDS011;1370;52.596;13.112;2023-01-29T04:52:11;29.50;;;16.30;;
2724;SDS011;1370;52.596;13.112;2023-01-29T04:54:53;29.83;;;17.20;;
2724;SDS011;1370;52.596;13.112;2023-01-29T04:57:25;25.43;;;18.10;;
2724;SDS011;1370;52.596;13.112;2023-01-29T04:59:54;35.00;;;18.60;;
2724;SDS011;1370;52.596;13.112;2023-01-29T05:02:23;30.67;;;17.93;;
2724;SDS011;1370;52.596;13.112;2023-01-29T05:04:50;28.20;;;17.37;;
2724;SDS011;1370;52.596;13.112;2023-01-29T05:07:16;29.73;;;17.17;;
2724;SDS011;1370;52.596;13.112;2023-01-29T05:09:43;28.13;;;17.70;;
2724;SDS011;1370;52.596;13.112;2023-01-29T05:12:09;33.83;;;19.63;;
2724;SDS011;1370;52.596;13.112;2023-01-29T05:14:35;28.27;;;17.87;;
2724;SDS011;1370;52.596;13.112;2023-01-29T05:17:02;32.20;;;17.57;;
2724;SDS011;1370;52.596;13.112;2023-01-29T05:19:29;27.80;;;17.90;;
2724;SDS011;1370;52.596;13.112;2023-01-29T05:21:55;25.90;;;18.10;;
2724;SDS011;1370;52.596;13.112;2023-01-29T05:24:21;32.60;;;17.77;;
2724;SDS011;1370;52.596;13.112;2023-01-29T05:26:48;25.10;;;16.57;;
2724;SDS011;1370;52.596;13.112;2023-01-29T05:29:32;41.00;;;20.47;;
2724;SDS011;1370;52.596;13.112;2023-01-29T05:31:58;32.83;;;17.83;;
2724;SDS011;1370;52.596;13.112;2023-01-29T05:34:23;31.90;;;17.13;;
2724;SDS011;1370;52.596;13.112;2023-01-29T05:36:49;30.70;;;18.00;;
2724;SDS011;1370;52.596;13.112;2023-01-29T05:39:14;31.43;;;19.07;;
2724;SDS011;1370;52.596;13.112;2023-01-29T05:41:40;30.10;;;18.10;;
2724;SDS011;1370;52.596;13.112;2023-01-29T05:44:05;45.67;;;19.27;;
2724;SDS011;1370;52.596;13.112;2023-01-29T05:46:30;35.03;;;18.40;;
2724;SDS011;1370;52.596;13.112;2023-01-29T05:48:56;27.83;;;18.67;;
2724;SDS011;1370;52.596;13.112;2023-01-29T05:51:21;30.87;;;18.80;;
2724;SDS011;1370;52.596;13.112;2023-01-29T05:53:47;27.57;;;16.23;;
2724;SDS011;1370;52.596;13.112;2023-01-29T05:56:12;32.00;;;19.30;;
2724;SDS011;1370;52.596;13.112;2023-01-29T05:58:37;30.37;;;18.23;;
2724;SDS011;1370;52.596;13.112;2023-01-29T06:01:10;28.30;;;17.17;;
2724;SDS011;1370;52.596;13.112;2023-01-29T06:03:36;32.27;;;19.73;;
2724;SDS011;1370;52.596;13.112;2023-01-29T06:06:02;33.87;;;19.30;;
2724;SDS011;1370;52.596;13.112;2023-01-29T06:08:27;33.97;;;18.77;;
2724;SDS011;1370;52.596;13.112;2023-01-29T06:10:52;28.53;;;17.67;;
2724;SDS011;1370;52.596;13.112;2023-01-29T06:13:18;31.40;;;18.47;;
2724;SDS011;1370;52.596;13.112;2023-01-29T06:15:43;27.53;;;18.17;;
2724;SDS011;1370;52.596;13.112;2023-01-29T06:18:08;28.47;;;18.00;;
2724;SDS011;1370;52.596;13.112;2023-01-29T06:20:34;28.67;;;18.83;;
2724;SDS011;1370;52.596;13.112;2023-01-29T06:22:59;34.60;;;17.77;;
2724;SDS011;1370;52.596;13.112;2023-01-29T06:25:30;31.47;;;17.97;;
2724;SDS011;1370;52.596;13.112;2023-01-29T06:27:55;32.37;;;18.10;;
2724;SDS011;1370;52.596;13.112;2023-01-29T06:30:21;31.70;;;17.67;;
2724;SDS011;1370;52.596;13.112;2023-01-29T06:32:46;28.27;;;17.40;;
2724;SDS011;1370;52.596;13.112;2023-01-29T06:35:11;29.47;;;16.60;;
2724;SDS011;1370;52.596;13.112;2023-01-29T06:37:37;25.50;;;18.30;;
2724;SDS011;1370;52.596;13.112;2023-01-29T06:40:02;34.80;;;16.67;;
2724;SDS011;1370;52.596;13.112;2023-01-29T06:42:28;29.93;;;20.00;;
2724;SDS011;1370;52.596;13.112;2023-01-29T06:44:54;31.57;;;18.23;;
2724;SDS011;1370;52.596;13.112;2023-01-29T06:47:19;35.83;;;18.17;;
2724;SDS011;1370;52.596;13.112;2023-01-29T06:49:45;28.73;;;17.30;;
2724;SDS011;1370;52.596;13.112;2023-01-29T06:52:10;32.40;;;18.53;;
2724;SDS011;1370;52.596;13.112;2023-01-29T06:54:35;37.10;;;18.17;;
2724;SDS011;1370;52.596;13.112;2023-01-29T06:57:01;32.37;;;18.23;;
2724;SDS011;1370;52.596;13.112;2023-01-29T06:59:26;35.10;;;19.47;;
2724;SDS011;1370;52.596;13.112;2023-01-29T07:01:51;26.47;;;17.23;;
2724;SDS011;1370;52.596;13.112;2023-01-29T07:04:16;33.77;;;18.70;;
2724;SDS011;1370;52.596;13.112;2023-01-29T07:06:42;40.07;;;19.80;;
2724;SDS011;1370;52.596;13.112;2023-01-29T07:09:07;31.77;;;18.30;;
2724;SDS011;1370;52.596;13.112;2023-01-29T07:11:35;31.23;;;18.03;;
2724;SDS011;1370;52.596;13.112;2023-01-29T07:14:02;33.73;;;20.30;;
2724;SDS011;1370;52.596;13.112;2023-01-29T07:16:27;32.67;;;19.67;;
2724;SDS011;1370;52.596;13.112;2023-01-29T07:18:53;33.17;;;21.00;;
2724;SDS011;1370;52.596;13.112;2023-01-29T07:21:18;32.27;;;20.70;;
2724;SDS011;1370;52.596;13.112;2023-01-29T07:23:43;29.63;;;19.57;;
2724;SDS011;1370;52.596;13.112;2023-01-29T07:26:09;32.50;;;20.10;;
2724;SDS011;1370;52.596;13.112;2023-01-29T07:28:38;34.60;;;21.13;;
2724;SDS011;1370;52.596;13.112;2023-01-29T07:31:04;29.30;;;18.87;;
2724;SDS011;1370;52.596;13.112;2023-01-29T07:33:30;29.53;;;17.93;;
2724;SDS011;1370;52.596;13.112;2023-01-29T07:35:55;30.63;;;18.77;;
2724;SDS011;1370;52.596;13.112;2023-01-29T07:38:21;30.03;;;21.10;;
2724;SDS011;1370;52.596;13.112;2023-01-29T07:40:46;31.23;;;18.10;;
2724;SDS011;1370;52.596;13.112;2023-01-29T07:43:12;29.30;;;18.90;;
2724;SDS011;1370;52.596;13.112;2023-01-29T07:45:38;31.50;;;19.40;;
2724;SDS011;1370;52.596;13.112;2023-01-29T07:48:04;39.93;;;20.20;;
2724;SDS011;1370;52.596;13.112;2023-01-29T07:50:30;40.73;;;19.67;;
2724;SDS011;1370;52.596;13.112;2023-01-29T07:52:56;40.37;;;19.60;;
2724;SDS011;1370;52.596;13.112;2023-01-29T07:55:24;26.53;;;18.20;;
2724;SDS011;1370;52.596;13.112;2023-01-29T07:57:57;40.63;;;19.83;;
2724;SDS011;1370;52.596;13.112;2023-01-29T08:00:23;35.83;;;21.10;;
2724;SDS011;1370;52.596;13.112;2023-01-29T08:02:49;33.80;;;18.30;;
2724;SDS011;1370;52.596;13.112;2023-01-29T08:05:14;36.67;;;19.97;;
2724;SDS011;1370;52.596;13.112;2023-01-29T08:07:40;35.60;;;20.23;;
2724;SDS011;1370;52.596;13.112;2023-01-29T08:10:05;37.30;;;20.03;;
2724;SDS011;1370;52.596;13.112;2023-01-29T08:12:30;46.27;;;21.60;;
2724;SDS011;1370;52.596;13.112;2023-01-29T08:14:56;41.57;;;22.27;;
2724;SDS011;1370;52.596;13.112;2023-01-29T08:17:21;32.27;;;21.83;;
2724;SDS011;1370;52.596;13.112;2023-01-29T08:19:46;36.17;;;21.70;;
2724;SDS011;1370;52.596;13.112;2023-01-29T08:22:12;34.27;;;20.60;;
2724;SDS011;1370;52.596;13.112;2023-01-29T08:24:39;33.70;;;16.73;;
2724;SDS011;1370;52.596;13.112;2023-01-29T08:27:04;37.47;;;21.53;;
2724;SDS011;1370;52.596;13.112;2023-01-29T08:29:32;36.27;;;18.80;;
2724;SDS011;1370;52.596;13.112;2023-01-29T08:31:58;37.83;;;19.50;;
2724;SDS011;1370;52.596;13.112;2023-01-29T08:34:23;31.47;;;19.77;;
2724;SDS011;1370;52.596;13.112;2023-01-29T08:36:48;36.83;;;20.57;;
2724;SDS011;1370;52.596;13.112;2023-01-29T08:39:14;41.37;;;17.93;;
2724;SDS011;1370;52.596;13.112;2023-01-29T08:41:39;32.53;;;19.60;;
2724;SDS011;1370;52.596;13.112;2023-01-29T08:44:04;35.30;;;19.30;;
2724;SDS011;1370;52.596;13.112;2023-01-29T08:46:30;32.40;;;18.80;;
2724;SDS011;1370;52.596;13.112;2023-01-29T08:48:55;37.10;;;21.57;;
2724;SDS011;1370;52.596;13.112;2023-01-29T08:51:21;37.63;;;19.90;;
2724;SDS011;1370;52.596;13.112;2023-01-29T08:53:48;38.03;;;19.93;;
2724;SDS011;1370;52.596;13.112;2023-01-29T08:56:13;34.53;;;20.00;;
2724;SDS011;1370;52.596;13.112;2023-01-29T08:58:40;43.70;;;19.70;;
2724;SDS011;1370;52.596;13.112;2023-01-29T09:01:06;39.77;;;18.87;;
2724;SDS011;1370;52.596;13.112;2023-01-29T09:03:32;28.00;;;17.70;;
2724;SDS011;1370;52.596;13.112;2023-01-29T09:05:58;31.77;;;18.30;;
2724;SDS011;1370;52.596;13.112;2023-01-29T09:08:23;35.23;;;19.37;;
2724;SDS011;1370;52.596;13.112;2023-01-29T09:10:48;32.83;;;19.47;;
2724;SDS011;1370;52.596;13.112;2023-01-29T09:13:13;30.83;;;17.67;;
2724;SDS011;1370;52.596;13.112;2023-01-29T09:15:39;35.23;;;18.27;;
2724;SDS011;1370;52.596;13.112;2023-01-29T09:18:04;31.70;;;18.40;;
2724;SDS011;1370;52.596;13.112;2023-01-29T09:20:30;30.10;;;19.27;;
2724;SDS011;1370;52.596;13.112;2023-01-29T09:22:55;36.07;;;19.20;;
2724;SDS011;1370;52.596;13.112;2023-01-29T09:25:22;37.67;;;20.67;;
2724;SDS011;1370;52.596;13.112;2023-01-29T09:27:48;40.27;;;19.60;;
2724;SDS011;1370;52.596;13.112;2023-01-29T09:30:13;31.30;;;20.00;;
2724;SDS011;1370;52.596;13.112;2023-01-29T09:32:38;35.70;;;19.80;;
2724;SDS011;1370;52.596;13.112;2023-01-29T09:35:04;31.17;;;19.60;;
2724;SDS011;1370;52.596;13.112;2023-01-29T09:37:29;34.00;;;19.10;;
2724;SDS011;1370;52.596;13.112;2023-01-29T09:39:55;36.33;;;21.03;;
2724;SDS011;1370;52.596;13.112;2023-01-29T09:42:23;27.90;;;17.57;;
2724;SDS011;1370;52.596;13.112;2023-01-29T09:47:37;29.90;;;18.80;;
2724;SDS011;1370;52.596;13.112;2023-01-29T09:50:25;32.43;;;18.37;;
2724;SDS011;1370;52.596;13.112;2023-01-29T09:52:51;32.83;;;18.13;;
2724;SDS011;1370;52.596;13.112;2023-01-29T09:55:26;26.00;;;17.37;;
2724;SDS011;1370;52.596;13.112;2023-01-29T09:57:57;33.10;;;18.37;;
2724;SDS011;1370;52.596;13.112;2023-01-29T10:00:25;22.30;;;15.70;;
2724;SDS011;1370;52.596;13.112;2023-01-29T10:03:15;32.47;;;19.07;;
2724;SDS011;1370;52.596;13.112;2023-01-29T10:08:42;28.30;;;17.50;;
2724;SDS011;1370;52.596;13.112;2023-01-29T10:11:37;37.87;;;18.50;;
2724;SDS011;1370;52.596;13.112;2023-01-29T10:22:03;33.80;;;17.27;;
2724;SDS011;1370;52.596;13.112;2023-01-29T10:24:37;26.07;;;15.87;;
2724;SDS011;1370;52.596;13.112;2023-01-29T10:27:16;27.17;;;16.30;;
2724;SDS011;1370;52.596;13.112;2023-01-29T10:29:42;26.50;;;17.10;;
2724;SDS011;1370;52.596;13.112;2023-01-29T10:32:16;26.57;;;16.73;;
2724;SDS011;1370;52.596;13.112;2023-01-29T10:34:47;29.30;;;16.57;;
2724;SDS011;1370;52.596;13.112;2023-01-29T10:37:16;27.73;;;16.23;;
2724;SDS011;1370;52.596;13.112;2023-01-29T10:39:43;25.00;;;15.23;;
2724;SDS011;1370;52.596;13.112;2023-01-29T10:42:14;28.80;;;16.37;;
2724;SDS011;1370;52.596;13.112;2023-01-29T11:01:14;25.40;;;16.70;;
2724;SDS011;1370;52.596;13.112;2023-01-29T11:03:40;27.93;;;15.23;;
2724;SDS011;1370;52.596;13.112;2023-01-29T11:06:21;30.33;;;17.83;;
2724;SDS011;1370;52.596;13.112;2023-01-29T11:08:53;22.87;;;15.77;;
2724;SDS011;1370;52.596;13.112;2023-01-29T11:11:21;20.90;;;14.03;;
2724;SDS011;1370;52.596;13.112;2023-01-29T11:13:56;22.20;;;14.97;;
2724;SDS011;1370;52.596;13.112;2023-01-29T11:16:24;28.37;;;17.60;;
2724;SDS011;1370;52.596;13.112;2023-01-29T11:18:55;27.40;;;15.07;;
2724;SDS011;1370;52.596;13.112;2023-01-29T11:21:22;20.77;;;14.23;;
2724;SDS011;1370;52.596;13.112;2023-01-29T11:23:48;22.87;;;15.30;;
2724;SDS011;1370;52.596;13.112;2023-01-29T11:26:16;27.93;;;13.93;;
2724;SDS011;1370;52.596;13.112;2023-01-29T11:28:44;21.43;;;13.63;;
2724;SDS011;1370;52.596;13.112;2023-01-29T11:31:15;24.00;;;15.00;;
2724;SDS011;1370;52.596;13.112;2023-01-29T11:33:42;23.13;;;14.20;;
2724;SDS011;1370;52.596;13.112;2023-01-29T11:36:20;29.57;;;16.83;;
2724;SDS011;1370;52.596;13.112;2023-01-29T11:38:58;22.97;;;15.07;;
2724;SDS011;1370;52.596;13.112;2023-01-29T11:41:41;27.80;;;14.27;;
2724;SDS011;1370;52.596;13.112;2023-01-29T11:44:16;21.83;;;14.37;;
2724;SDS011;1370;52.596;13.112;2023-01-29T11:46:42;25.20;;;14.30;;
2724;SDS011;1370;52.596;13.112;2023-01-29T11:49:11;22.03;;;14.23;;
2724;SDS011;1370;52.596;13.112;2023-01-29T11:51:48;20.90;;;15.40;;
2724;SDS011;1370;52.596;13.112;2023-01-29T11:54:16;23.73;;;13.83;;
2724;SDS011;1370;52.596;13.112;2023-01-29T11:56:42;22.93;;;14.20;;
2724;SDS011;1370;52.596;13.112;2023-01-29T12:02:10;26.30;;;13.53;;
2724;SDS011;1370;52.596;13.112;2023-01-29T12:04:42;24.03;;;14.67;;
2724;SDS011;1370;52.596;13.112;2023-01-29T12:07:14;32.73;;;16.53;;
2724;SDS011;1370;52.596;13.112;2023-01-29T12:09:41;20.00;;;13.40;;
2724;SDS011;1370;52.596;13.112;2023-01-29T12:12:56;20.33;;;14.33;;
2724;SDS011;1370;52.596;13.112;2023-01-29T12:15:21;22.73;;;14.53;;
2724;SDS011;1370;52.596;13.112;2023-01-29T12:20:45;21.00;;;13.80;;
2724;SDS011;1370;52.596;13.112;2023-01-29T12:31:23;24.27;;;15.70;;
2724;SDS011;1370;52.596;13.112;2023-01-29T12:33:52;22.63;;;14.23;;
2724;SDS011;1370;52.596;13.112;2023-01-29T12:36:47;22.87;;;14.70;;
2724;SDS011;1370;52.596;13.112;2023-01-29T12:39:17;29.03;;;14.67;;
2724;SDS011;1370;52.596;13.112;2023-01-29T12:41:44;20.07;;;14.37;;
2724;SDS011;1370;52.596;13.112;2023-01-29T12:44:18;25.60;;;15.33;;
2724;SDS011;1370;52.596;13.112;2023-01-29T12:46:51;19.70;;;14.40;;
2724;SDS011;1370;52.596;13.112;2023-01-29T12:49:23;24.63;;;13.63;;
2724;SDS011;1370;52.596;13.112;2023-01-29T12:51:53;25.80;;;15.00;;
2724;SDS011;1370;52.596;13.112;2023-01-29T12:54:26;24.37;;;14.47;;
2724;SDS011;1370;52.596;13.112;2023-01-29T12:56:58;25.37;;;15.10;;
2724;SDS011;1370;52.596;13.112;2023-01-29T12:59:42;23.37;;;14.40;;
2724;SDS011;1370;52.596;13.112;2023-01-29T13:02:12;20.83;;;14.17;;
2724;SDS011;1370;52.596;13.112;2023-01-29T13:04:53;25.47;;;13.00;;
2724;SDS011;1370;52.596;13.112;2023-01-29T13:07:26;22.77;;;14.40;;
2724;SDS011;1370;52.596;13.112;2023-01-29T13:09:56;24.83;;;15.90;;
2724;SDS011;1370;52.596;13.112;2023-01-29T13:12:28;25.97;;;16.70;;
2724;SDS011;1370;52.596;13.112;2023-01-29T13:14:56;23.93;;;14.33;;
2724;SDS011;1370;52.596;13.112;2023-01-29T13:17:31;26.47;;;17.27;;
2724;SDS011;1370;52.596;13.112;2023-01-29T13:20:02;27.87;;;15.83;;
2724;SDS011;1370;52.596;13.112;2023-01-29T13:22:34;38.40;;;17.23;;
2724;SDS011;1370;52.596;13.112;2023-01-29T13:25:01;29.37;;;16.53;;
2724;SDS011;1370;52.596;13.112;2023-01-29T13:27:35;23.30;;;15.70;;
2724;SDS011;1370;52.596;13.112;2023-01-29T13:30:01;21.90;;;15.23;;
2724;SDS011;1370;52.596;13.112;2023-01-29T13:32:30;24.50;;;15.67;;
2724;SDS011;1370;52.596;13.112;2023-01-29T13:34:57;25.47;;;15.50;;
2724;SDS011;1370;52.596;13.112;2023-01-29T13:37:26;23.63;;;15.30;;
2724;SDS011;1370;52.596;13.112;2023-01-29T13:39:55;18.37;;;15.77;;
2724;SDS011;1370;52.596;13.112;2023-01-29T13:42:33;23.47;;;15.27;;
2724;SDS011;1370;52.596;13.112;2023-01-29T13:45:02;21.73;;;14.47;;
2724;SDS011;1370;52.596;13.112;2023-01-29T13:47:30;31.57;;;15.23;;
2724;SDS011;1370;52.596;13.112;2023-01-29T13:50:01;33.50;;;16.90;;
2724;SDS011;1370;52.596;13.112;2023-01-29T13:52:39;20.70;;;15.03;;
2724;SDS011;1370;52.596;13.112;2023-01-29T13:55:26;25.20;;;15.70;;
2724;SDS011;1370;52.596;13.112;2023-01-29T13:57:55;28.67;;;17.10;;
2724;SDS011;1370;52.596;13.112;2023-01-29T14:05:42;26.70;;;17.30;;
2724;SDS011;1370;52.596;13.112;2023-01-29T14:10:34;29.27;;;17.50;;
2724;SDS011;1370;52.596;13.112;2023-01-29T14:18:22;25.50;;;15.93;;
2724;SDS011;1370;52.596;13.112;2023-01-29T14:20:51;30.37;;;17.47;;
2724;SDS011;1370;52.596;13.112;2023-01-29T14:23:26;33.23;;;18.60;;
2724;SDS011;1370;52.596;13.112;2023-01-29T14:25:54;29.03;;;17.90;;
2724;SDS011;1370;52.596;13.112;2023-01-29T14:28:21;27.03;;;17.07;;
2724;SDS011;1370;52.596;13.112;2023-01-29T14:30:48;30.37;;;16.90;;
2724;SDS011;1370;52.596;13.112;2023-01-29T14:33:22;23.70;;;17.80;;
2724;SDS011;1370;52.596;13.112;2023-01-29T14:35:49;32.70;;;18.73;;
2724;SDS011;1370;52.596;13.112;2023-01-29T14:38:15;32.23;;;20.57;;
2724;SDS011;1370;52.596;13.112;2023-01-29T14:40:41;31.20;;;19.73;;
2724;SDS011;1370;52.596;13.112;2023-01-29T14:43:08;39.63;;;20.03;;
2724;SDS011;1370;52.596;13.112;2023-01-29T14:45:44;41.53;;;21.13;;
2724;SDS011;1370;52.596;13.112;2023-01-29T14:55:56;34.63;;;20.20;;
2724;SDS011;1370;52.596;13.112;2023-01-29T15:01:04;38.70;;;21.20;;
2724;SDS011;1370;52.596;13.112;2023-01-29T15:03:40;40.00;;;21.50;;
2724;SDS011;1370;52.596;13.112;2023-01-29T15:06:08;38.00;;;21.53;;
2724;SDS011;1370;52.596;13.112;2023-01-29T15:08:39;36.90;;;21.87;;
2724;SDS011;1370;52.596;13.112;2023-01-29T15:11:29;33.80;;;20.90;;
2724;SDS011;1370;52.596;13.112;2023-01-29T15:17:03;41.13;;;22.30;;
2724;SDS011;1370;52.596;13.112;2023-01-29T15:19:36;41.57;;;22.73;;
2724;SDS011;1370;52.596;13.112;2023-01-29T15:22:10;37.83;;;21.10;;
2724;SDS011;1370;52.596;13.112;2023-01-29T15:24:37;35.40;;;21.50;;
2724;SDS011;1370;52.596;13.112;2023-01-29T15:27:04;31.07;;;19.30;;
2724;SDS011;1370;52.596;13.112;2023-01-29T15:29:31;47.07;;;23.67;;
2724;SDS011;1370;52.596;13.112;2023-01-29T15:31:56;44.20;;;23.13;;
2724;SDS011;1370;52.596;13.112;2023-01-29T15:34:22;41.93;;;22.30;;
2724;SDS011;1370;52.596;13.112;2023-01-29T15:36:48;39.63;;;21.00;;
2724;SDS011;1370;52.596;13.112;2023-01-29T15:39:15;40.90;;;22.33;;
2724;SDS011;1370;52.596;13.112;2023-01-29T15:41:41;39.80;;;19.90;;
2724;SDS011;1370;52.596;13.112;2023-01-29T15:44:14;36.70;;;23.70;;
2724;SDS011;1370;52.596;13.112;2023-01-29T15:46:43;37.20;;;20.80;;
2724;SDS011;1370;52.596;13.112;2023-01-29T15:49:14;39.57;;;21.50;;
2724;SDS011;1370;52.596;13.112;2023-01-29T15:51:43;32.50;;;19.10;;
2724;SDS011;1370;52.596;13.112;2023-01-29T15:54:10;33.07;;;19.63;;
2724;SDS011;1370;52.596;13.112;2023-01-29T15:56:39;35.43;;;20.63;;
2724;SDS011;1370;52.596;13.112;2023-01-29T15:59:06;32.57;;;20.33;;
2724;SDS011;1370;52.596;13.112;2023-01-29T16:01:32;37.90;;;21.57;;
2724;SDS011;1370;52.596;13.112;2023-01-29T16:03:58;36.40;;;21.27;;
2724;SDS011;1370;52.596;13.112;2023-01-29T16:06:26;35.87;;;19.90;;
2724;SDS011;1370;52.596;13.112;2023-01-29T16:08:53;28.57;;;18.67;;
2724;SDS011;1370;52.596;13.112;2023-01-29T16:11:19;42.20;;;22.05;;
2724;SDS011;1370;52.596;13.112;2023-01-29T16:13:45;35.60;;;20.10;;
2724;SDS011;1370;52.596;13.112;2023-01-29T16:16:20;30.40;;;17.73;;